createdAt,value
2022-11-05T00:00:17.536Z,94676.38
2022-11-05T00:03:02.795Z,94681.91
2022-11-05T00:05:48.535Z,94677.50
2022-11-05T00:08:33.867Z,94670.28
2022-11-05T00:11:00.918Z,94668.06
2022-11-05T00:13:46.796Z,94679.34
2022-11-05T00:16:32.459Z,94679.53
2022-11-05T00:19:09.168Z,94677.75
2022-11-05T00:21:58.138Z,94680.72
2022-11-05T00:24:43.748Z,94670.06
2022-11-05T00:27:11.253Z,94669.28
2022-11-05T00:29:38.120Z,94653.63
2022-11-05T00:32:05.124Z,94662.84
2022-11-05T00:34:32.336Z,94659.91
2022-11-05T00:36:59.121Z,94663.28
2022-11-05T00:39:25.941Z,94662.16
2022-11-05T00:42:11.430Z,94654.56
2022-11-05T00:44:56.662Z,94654.22
2022-11-05T00:47:41.805Z,94655.84
2022-11-05T00:50:10.907Z,94647.59
2022-11-05T00:52:57.076Z,94656.97
2022-11-05T00:55:34.875Z,94649.03
2022-11-05T00:58:03.840Z,94649.84
2022-11-05T01:00:33.064Z,94647.44
2022-11-05T01:03:00.866Z,94641.75
2022-11-05T01:05:28.793Z,94641.94
2022-11-05T01:07:56.069Z,94640.47
2022-11-05T01:10:24.673Z,94643.50
2022-11-05T01:12:51.738Z,94633.34
2022-11-05T01:15:19.925Z,94632.53
2022-11-05T01:17:47.109Z,94629.28
2022-11-05T01:20:14.158Z,94619.41
2022-11-05T01:22:41.031Z,94617.91
2022-11-05T01:25:08.906Z,94620.16
2022-11-05T01:27:37.380Z,94599.31
2022-11-05T01:30:06.961Z,94610.78
2022-11-05T01:32:35.522Z,94624.06
2022-11-05T01:35:04.070Z,94617.00
2022-11-05T01:37:30.967Z,94611.69
2022-11-05T01:39:58.010Z,94613.31
2022-11-05T01:42:26.449Z,94603.28
2022-11-05T01:44:55.719Z,94588.44
2022-11-05T01:47:34.352Z,94591.22
2022-11-05T01:50:14.086Z,94594.94
2022-11-05T01:52:40.941Z,94588.25
2022-11-05T01:55:10.437Z,94582.81
2022-11-05T01:57:37.479Z,94579.75
2022-11-05T02:00:04.866Z,94590.28
2022-11-05T02:02:40.123Z,94593.53
2022-11-05T02:05:11.187Z,94583.72
2022-11-05T02:07:38.368Z,94573.81
2022-11-05T02:10:10.203Z,94572.19
2022-11-05T02:12:39.594Z,94582.09
2022-11-05T02:15:06.667Z,94577.91
2022-11-05T02:18:10.920Z,94583.56
2022-11-05T02:20:59.683Z,94588.09
2022-11-05T02:24:18.414Z,94571.31
2022-11-05T02:27:03.496Z,94572.59
2022-11-05T02:30:03.499Z,94585.25
2022-11-05T02:32:36.162Z,94567.50
2022-11-05T02:35:19.080Z,94575.25
2022-11-05T02:38:06.599Z,94576.91
2022-11-05T02:40:49.522Z,94584.94
2022-11-05T02:43:28.305Z,94567.88
2022-11-05T02:46:01.184Z,94577.72
2022-11-05T02:48:34.065Z,94572.06
2022-11-05T02:51:18.785Z,94580.78
2022-11-05T02:54:01.825Z,94582.41
2022-11-05T02:56:35.603Z,94570.94
2022-11-05T02:59:02.436Z,94574.97
2022-11-05T03:01:29.384Z,94587.38
2022-11-05T03:04:00.887Z,94587.84
2022-11-05T03:06:41.255Z,94579.16
2022-11-05T03:09:32.128Z,94579.50
2022-11-05T03:12:10.120Z,94587.09
2022-11-05T03:14:49.101Z,94585.66
2022-11-05T03:17:34.043Z,94591.28
2022-11-05T03:20:10.662Z,94582.41
2022-11-05T03:22:47.645Z,94582.28
2022-11-05T03:25:21.909Z,94580.84
2022-11-05T03:27:54.457Z,94581.16
2022-11-05T03:30:21.576Z,94591.50
2022-11-05T03:32:54.871Z,94593.16
2022-11-05T03:35:27.890Z,94600.25
2022-11-05T03:38:03.405Z,94605.91
2022-11-05T03:40:35.159Z,94607.03
2022-11-05T03:43:06.707Z,94617.84
2022-11-05T03:45:38.402Z,94600.59
2022-11-05T03:48:08.277Z,94613.16
2022-11-05T03:50:54.180Z,94618.31
2022-11-05T03:53:30.199Z,94621.22
2022-11-05T03:56:03.348Z,94624.94
2022-11-05T03:58:31.861Z,94636.06
2022-11-05T04:01:02.777Z,94635.09
2022-11-05T04:03:36.398Z,94632.38
2022-11-05T04:06:24.087Z,94622.53
2022-11-05T04:09:09.740Z,94620.41
2022-11-05T04:11:55.651Z,94626.06
2022-11-05T04:14:22.549Z,94629.31
2022-11-05T04:17:08.764Z,94630.91
2022-11-05T04:19:58.174Z,94622.84
2022-11-05T04:22:45.370Z,94633.00
2022-11-05T04:25:13.322Z,94628.03
2022-11-05T04:27:40.137Z,94624.47
2022-11-05T04:30:20.040Z,94627.19
2022-11-05T04:32:56.756Z,94636.72
2022-11-05T04:35:23.848Z,94642.06
2022-11-05T04:37:50.715Z,94653.22
2022-11-05T04:40:17.553Z,94650.44
2022-11-05T04:42:44.354Z,94651.41
2022-11-05T04:45:11.134Z,94655.44
2022-11-05T04:47:37.959Z,94650.94
2022-11-05T04:50:05.560Z,94653.03
2022-11-05T04:52:32.432Z,94653.22
2022-11-05T04:54:59.263Z,94646.75
2022-11-05T04:57:26.056Z,94645.75
2022-11-05T04:59:55.145Z,94639.78
2022-11-05T05:02:21.993Z,94642.53
2022-11-05T05:04:48.843Z,94646.41
2022-11-05T05:07:15.670Z,94652.22
2022-11-05T05:09:42.493Z,94653.53
2022-11-05T05:12:09.262Z,94645.59
2022-11-05T05:14:36.172Z,94661.09
2022-11-05T05:17:03.036Z,94667.41
2022-11-05T05:19:29.904Z,94666.44
2022-11-05T05:21:56.731Z,94666.59
2022-11-05T05:24:25.134Z,94671.75
2022-11-05T05:26:52.155Z,94663.53
2022-11-05T05:29:19.379Z,94679.97
2022-11-05T05:31:46.179Z,94689.66
2022-11-05T05:34:14.420Z,94684.19
2022-11-05T05:36:41.214Z,94694.50
2022-11-05T05:39:08.892Z,94696.75
2022-11-05T05:41:35.687Z,94684.50
2022-11-05T05:44:04.374Z,94695.47
2022-11-05T05:46:31.149Z,94700.44
2022-11-05T05:48:58.297Z,94698.63
2022-11-05T05:51:25.075Z,94707.66
2022-11-05T05:53:53.936Z,94697.66
2022-11-05T05:56:21.145Z,94700.53
2022-11-05T05:58:48.256Z,94704.41
2022-11-05T06:01:19.193Z,94700.69
2022-11-05T06:03:47.309Z,94704.72
2022-11-05T06:06:15.342Z,94706.00
2022-11-05T06:08:42.606Z,94701.13
2022-11-05T06:11:09.800Z,94704.03
2022-11-05T06:13:37.528Z,94706.59
2022-11-05T06:16:07.081Z,94703.94
2022-11-05T06:18:34.809Z,94698.44
2022-11-05T06:21:13.010Z,94696.34
2022-11-05T06:23:41.718Z,94702.25
2022-11-05T06:26:11.317Z,94696.88
2022-11-05T06:28:38.346Z,94694.41
2022-11-05T06:31:05.952Z,94698.19
2022-11-05T06:33:32.820Z,94685.53
2022-11-05T06:36:01.279Z,94696.19
2022-11-05T06:38:29.466Z,94691.31
2022-11-05T06:40:59.360Z,94701.31
2022-11-05T06:43:27.385Z,94690.28
2022-11-05T06:45:54.974Z,94694.13
2022-11-05T06:48:22.012Z,94692.44
2022-11-05T06:50:48.865Z,94692.03
2022-11-05T06:53:15.696Z,94682.56
2022-11-05T06:55:44.870Z,94674.09
2022-11-05T06:58:11.716Z,94675.66
2022-11-05T07:00:38.644Z,94675.22
2022-11-05T07:03:11.158Z,94677.72
2022-11-05T07:05:45.361Z,94678.72
2022-11-05T07:08:12.329Z,94666.09
2022-11-05T07:10:39.191Z,94664.84
2022-11-05T07:13:08.373Z,94667.16
2022-11-05T07:15:35.969Z,94665.50
2022-11-05T07:18:02.940Z,94662.59
2022-11-05T07:20:33.937Z,94658.91
2022-11-05T07:23:02.721Z,94654.16
2022-11-05T07:25:31.507Z,94666.94
2022-11-05T07:27:58.607Z,94649.50
2022-11-05T07:30:25.476Z,94666.81
2022-11-05T07:32:52.447Z,94662.63
2022-11-05T07:35:19.327Z,94663.25
2022-11-05T07:37:48.005Z,94657.28
2022-11-05T07:40:16.646Z,94648.63
2022-11-05T07:42:45.233Z,94653.13
2022-11-05T07:45:13.717Z,94643.00
2022-11-05T07:47:49.646Z,94637.06
2022-11-05T07:50:18.376Z,94641.28
2022-11-05T07:52:45.762Z,94641.94
2022-11-05T07:55:13.447Z,94651.38
2022-11-05T07:57:44.968Z,94642.41
2022-11-05T08:00:22.962Z,94642.84
2022-11-05T08:03:06.860Z,94628.56
2022-11-05T08:05:38.994Z,94634.81
2022-11-05T08:08:07.716Z,94615.50
2022-11-05T08:10:35.452Z,94620.31
2022-11-05T08:13:02.512Z,94627.56
2022-11-05T08:15:29.454Z,94628.34
2022-11-05T08:18:00.994Z,94631.53
2022-11-05T08:20:28.522Z,94624.28
2022-11-05T08:22:56.155Z,94626.31
2022-11-05T08:25:23.890Z,94626.69
2022-11-05T08:27:58.768Z,94633.91
2022-11-05T08:30:32.624Z,94633.00
2022-11-05T08:33:02.392Z,94635.66
2022-11-05T08:35:29.883Z,94626.44
2022-11-05T08:38:02.876Z,94621.31
2022-11-05T08:40:36.155Z,94618.84
2022-11-05T08:43:04.971Z,94613.16
2022-11-05T08:45:32.071Z,94617.28
2022-11-05T08:48:04.366Z,94625.88
2022-11-05T08:50:32.130Z,94625.88
2022-11-05T08:52:59.187Z,94621.66
2022-11-05T08:55:26.737Z,94607.41
2022-11-05T08:58:01.501Z,94615.88
2022-11-05T09:00:30.929Z,94624.78
2022-11-05T09:03:02.401Z,94606.31
2022-11-05T09:05:30.825Z,94610.16
2022-11-05T09:08:01.298Z,94603.94
2022-11-05T09:10:28.766Z,94600.56
2022-11-05T09:12:55.850Z,94604.19
2022-11-05T09:15:23.567Z,94612.81
2022-11-05T09:17:50.923Z,94604.19
2022-11-05T09:20:18.097Z,94599.97
2022-11-05T09:22:46.401Z,94607.38
2022-11-05T09:25:13.276Z,94597.91
2022-11-05T09:27:40.055Z,94600.88
2022-11-05T09:30:07.441Z,94573.72
2022-11-05T09:32:34.397Z,94589.25
2022-11-05T09:35:01.435Z,94588.81
2022-11-05T09:37:29.306Z,94583.38
2022-11-05T09:39:56.075Z,94582.59
2022-11-05T09:42:29.431Z,94582.59
2022-11-05T09:45:04.014Z,94586.59
2022-11-05T09:47:40.350Z,94582.75
2022-11-05T09:50:13.419Z,94574.38
2022-11-05T09:52:40.228Z,94580.88
2022-11-05T09:55:43.111Z,94579.31
2022-11-05T09:58:17.971Z,94581.88
2022-11-05T10:00:48.849Z,94579.03
2022-11-05T10:03:29.013Z,94572.69
2022-11-05T10:06:07.229Z,94576.03
2022-11-05T10:08:44.298Z,94576.75
2022-11-05T10:11:18.536Z,94574.59
2022-11-05T10:13:59.635Z,94551.75
2022-11-05T10:16:36.456Z,94566.69
2022-11-05T10:19:13.223Z,94561.66
2022-11-05T10:24:28.150Z,94562.69
2022-11-05T10:26:56.428Z,94566.47
2022-11-05T10:29:30.217Z,94560.22
2022-11-05T10:32:00.024Z,94557.28
2022-11-05T10:34:32.734Z,94554.75
2022-11-05T10:36:59.730Z,94559.03
2022-11-05T10:39:27.953Z,94549.06
2022-11-05T10:42:10.914Z,94562.66
2022-11-05T10:45:02.230Z,94556.19
2022-11-05T10:47:53.850Z,94558.09
2022-11-05T10:50:25.166Z,94553.94
2022-11-05T10:52:58.331Z,94551.59
2022-11-05T10:55:29.834Z,94545.44
2022-11-05T10:58:13.361Z,94547.38
2022-11-05T11:00:40.651Z,94547.66
2022-11-05T11:03:36.313Z,94537.66
2022-11-05T11:06:16.792Z,94549.69
2022-11-05T11:08:46.256Z,94528.81
2022-11-05T11:11:26.172Z,94522.78
2022-11-05T11:13:58.973Z,94525.63
2022-11-05T11:16:32.119Z,94527.31
2022-11-05T11:19:01.333Z,94522.19
2022-11-05T11:21:30.212Z,94531.44
2022-11-05T11:23:58.681Z,94527.09
2022-11-05T11:26:35.555Z,94519.53
2022-11-05T11:29:07.152Z,94529.78
2022-11-05T11:31:38.317Z,94530.78
2022-11-05T11:34:28.360Z,94523.56
2022-11-05T11:37:05.509Z,94517.53
2022-11-05T11:39:33.404Z,94521.16
2022-11-05T11:42:05.703Z,94501.97
2022-11-05T11:44:42.002Z,94524.03
2022-11-05T11:47:12.319Z,94528.47
2022-11-05T11:49:42.025Z,94524.25
2022-11-05T11:52:15.227Z,94517.84
2022-11-05T11:54:42.966Z,94520.25
2022-11-05T11:57:25.192Z,94512.59
2022-11-05T12:00:08.341Z,94505.97
2022-11-05T12:02:42.323Z,94507.22
2022-11-05T12:05:33.075Z,94509.63
2022-11-05T12:08:08.641Z,94514.66
2022-11-05T12:10:57.857Z,94512.69
2022-11-05T12:13:24.618Z,94510.84
2022-11-05T12:15:58.066Z,94508.69
2022-11-05T12:18:36.851Z,94507.25
2022-11-05T12:21:12.477Z,94503.44
2022-11-05T12:23:57.534Z,94505.44
2022-11-05T12:26:42.665Z,94498.56
2022-11-05T12:29:38.322Z,94494.69
2022-11-05T12:32:46.549Z,94500.31
2022-11-05T12:36:12.321Z,94502.56
2022-11-05T12:39:06.853Z,94499.22
2022-11-05T12:41:37.144Z,94494.47
2022-11-05T12:44:28.100Z,94506.78
2022-11-05T12:47:03.731Z,94503.56
2022-11-05T12:50:00.405Z,94507.00
2022-11-05T12:52:45.342Z,94508.97
2022-11-05T12:55:16.973Z,94491.88
2022-11-05T12:57:48.250Z,94495.66
2022-11-05T13:00:20.542Z,94484.66
2022-11-05T13:03:08.824Z,94489.69
2022-11-05T13:05:38.762Z,94500.16
2022-11-05T13:08:10.648Z,94501.41
2022-11-05T13:10:55.295Z,94505.94
2022-11-05T13:13:38.642Z,94490.88
2022-11-05T13:16:13.736Z,94497.06
2022-11-05T13:19:06.991Z,94502.84
2022-11-05T13:21:36.170Z,94502.50
2022-11-05T13:24:18.898Z,94500.75
2022-11-05T13:26:56.364Z,94494.72
2022-11-05T13:29:32.917Z,94502.56
2022-11-05T13:32:19.906Z,94498.34
2022-11-05T13:34:47.777Z,94506.06
2022-11-05T13:37:39.495Z,94508.69
2022-11-05T13:40:09.812Z,94500.69
2022-11-05T13:43:14.793Z,94503.16
2022-11-05T13:45:52.261Z,94509.84
2022-11-05T13:48:31.330Z,94507.97
2022-11-05T13:51:16.717Z,94504.75
2022-11-05T13:54:01.892Z,94508.41
2022-11-05T13:56:47.299Z,94505.19
2022-11-05T13:59:38.890Z,94501.97
2022-11-05T14:02:17.566Z,94513.84
2022-11-05T14:05:01.292Z,94503.16
2022-11-05T14:07:35.310Z,94507.38
2022-11-05T14:10:25.175Z,94507.59
2022-11-05T14:12:55.019Z,94510.00
2022-11-05T14:15:25.816Z,94507.59
2022-11-05T14:18:27.887Z,94518.88
2022-11-05T14:21:01.149Z,94515.66
2022-11-05T14:23:36.636Z,94522.13
2022-11-05T14:26:14.125Z,94515.13
2022-11-05T14:28:47.432Z,94518.75
2022-11-05T14:31:20.098Z,94505.75
2022-11-05T14:34:01.447Z,94508.22
2022-11-05T14:36:44.684Z,94506.81
2022-11-05T14:39:29.190Z,94511.69
2022-11-05T14:42:04.694Z,94507.31
2022-11-05T14:44:34.971Z,94505.91
2022-11-05T14:47:08.040Z,94508.34
2022-11-05T14:50:01.574Z,94507.97
2022-11-05T14:52:29.068Z,94509.19
2022-11-05T14:54:58.667Z,94511.88
2022-11-05T14:57:40.778Z,94513.31
2022-11-05T15:00:36.735Z,94514.59
2022-11-05T15:03:31.414Z,94511.00
2022-11-05T15:06:19.294Z,94517.28
2022-11-05T15:08:48.915Z,94512.47
2022-11-05T15:11:28.391Z,94510.72
2022-11-05T15:13:55.189Z,94509.53
2022-11-05T15:17:01.147Z,94485.13
2022-11-05T15:19:32.831Z,94512.63
2022-11-05T15:22:04.517Z,94508.03
2022-11-05T15:24:32.159Z,94512.47
2022-11-05T15:26:58.915Z,94512.09
2022-11-05T15:29:29.009Z,94514.97
2022-11-05T15:31:56.950Z,94495.38
2022-11-05T15:34:33.217Z,94508.19
2022-11-05T15:37:03.494Z,94512.63
2022-11-05T15:39:40.840Z,94511.44
2022-11-05T15:42:22.436Z,94514.09
2022-11-05T15:44:51.955Z,94518.31
2022-11-05T15:47:24.554Z,94513.34
2022-11-05T15:49:55.984Z,94517.78
2022-11-05T15:52:26.079Z,94515.97
2022-11-05T15:55:15.028Z,94512.81
2022-11-05T15:57:59.036Z,94518.03
2022-11-05T16:00:28.558Z,94520.06
2022-11-05T16:03:06.566Z,94520.25
2022-11-05T16:05:41.798Z,94525.28
2022-11-05T16:08:19.072Z,94525.47
2022-11-05T16:10:49.344Z,94523.06
2022-11-05T16:13:28.074Z,94528.50
2022-11-05T16:15:57.081Z,94525.28
2022-11-05T16:18:30.188Z,94526.88
2022-11-05T16:21:02.902Z,94518.06
2022-11-05T16:24:00.677Z,94529.31
2022-11-05T16:27:00.688Z,94532.88
2022-11-05T16:29:25.773Z,94528.06
2022-11-05T16:31:55.353Z,94530.47
2022-11-05T16:34:27.080Z,94540.47
2022-11-05T16:36:59.197Z,94533.84
2022-11-05T16:39:26.695Z,94535.63
2022-11-05T16:41:53.651Z,94541.47
2022-11-05T16:44:20.485Z,94545.25
2022-11-05T16:46:49.464Z,94538.84
2022-11-05T16:49:17.492Z,94553.84
2022-11-05T16:51:44.823Z,94555.25
2022-11-05T16:54:11.660Z,94551.25
2022-11-05T16:56:40.082Z,94550.47
2022-11-05T16:59:11.282Z,94554.59
2022-11-05T17:01:41.034Z,94553.63
2022-11-05T17:04:09.571Z,94548.78
2022-11-05T17:06:36.410Z,94556.00
2022-11-05T17:09:03.250Z,94545.16
2022-11-05T17:11:30.027Z,94550.97
2022-11-05T17:13:56.908Z,94542.31
2022-11-05T17:16:23.890Z,94553.53
2022-11-05T17:18:51.171Z,94548.34
2022-11-05T17:21:17.950Z,94547.88
2022-11-05T17:23:44.754Z,94551.66
2022-11-05T17:26:13.837Z,94555.44
2022-11-05T17:28:41.231Z,94551.03
2022-11-05T17:31:11.699Z,94555.44
2022-11-05T17:33:38.702Z,94547.44
2022-11-05T17:36:11.204Z,94559.03
2022-11-05T17:38:38.634Z,94556.19
2022-11-05T17:41:17.394Z,94558.63
2022-11-05T17:43:44.538Z,94550.19
2022-11-05T17:46:15.176Z,94544.94
2022-11-05T17:48:42.565Z,94549.97
2022-11-05T17:51:11.306Z,94553.97
2022-11-05T17:53:38.371Z,94547.94
2022-11-05T17:56:32.514Z,94548.50
2022-11-05T17:59:03.145Z,94548.25
2022-11-05T18:01:32.829Z,94548.44
2022-11-05T18:04:05.408Z,94543.56
2022-11-05T18:06:39.627Z,94552.34
2022-11-05T18:09:08.261Z,94550.53
2022-11-05T18:11:36.325Z,94549.09
2022-11-05T18:14:04.022Z,94544.28
2022-11-05T18:16:30.973Z,94544.03
2022-11-05T18:18:57.854Z,94555.59
2022-11-05T18:21:24.671Z,94548.19
2022-11-05T18:23:53.643Z,94551.22
2022-11-05T18:26:20.640Z,94558.63
2022-11-05T18:28:47.458Z,94553.63
2022-11-05T18:31:20.743Z,94551.22
2022-11-05T18:33:51.441Z,94553.38
2022-11-05T18:36:19.449Z,94562.75
2022-11-05T18:38:46.875Z,94560.53
2022-11-05T18:41:14.204Z,94547.28
2022-11-05T18:43:41.251Z,94561.88
2022-11-05T18:46:08.919Z,94555.09
2022-11-05T18:48:36.527Z,94552.69
2022-11-05T18:51:14.093Z,94553.13
2022-11-05T18:53:41.864Z,94551.66
2022-11-05T18:56:14.838Z,94558.56
2022-11-05T18:58:42.804Z,94567.72
2022-11-05T19:01:18.722Z,94570.81
2022-11-05T19:03:46.660Z,94567.34
2022-11-05T19:06:15.077Z,94576.47
2022-11-05T19:08:42.072Z,94576.25
2022-11-05T19:11:11.913Z,94580.44
2022-11-05T19:13:39.348Z,94572.84
2022-11-05T19:16:09.012Z,94579.47
2022-11-05T19:18:36.244Z,94573.88
2022-11-05T19:21:11.653Z,94562.28
2022-11-05T19:23:39.533Z,94565.84
2022-11-05T19:26:12.715Z,94560.31
2022-11-05T19:28:40.492Z,94557.09
2022-11-05T19:31:08.539Z,94558.38
2022-11-05T19:33:35.751Z,94563.47
2022-11-05T19:36:06.542Z,94567.59
2022-11-05T19:38:33.684Z,94573.28
2022-11-05T19:41:08.225Z,94571.19
2022-11-05T19:43:36.221Z,94572.44
2022-11-05T19:46:11.158Z,94572.66
2022-11-05T19:48:38.380Z,94577.22
2022-11-05T19:51:09.764Z,94570.03
2022-11-05T19:53:41.032Z,94572.91
2022-11-05T19:56:10.795Z,94573.06
2022-11-05T19:58:37.574Z,94580.16
2022-11-05T20:01:05.073Z,94590.88
2022-11-05T20:03:32.056Z,94590.97
2022-11-05T20:06:04.315Z,94593.06
2022-11-05T20:08:31.125Z,94590.56
2022-11-05T20:10:58.068Z,94599.66
2022-11-05T20:13:25.221Z,94599.66
2022-11-05T20:15:52.151Z,94593.84
2022-11-05T20:18:19.354Z,94600.59
2022-11-05T20:20:46.846Z,94598.97
2022-11-05T20:23:14.419Z,94592.97
2022-11-05T20:25:42.548Z,94598.25
2022-11-05T20:28:10.080Z,94610.78
2022-11-05T20:30:39.962Z,94605.06
2022-11-05T20:33:09.312Z,94609.00
2022-11-05T20:35:39.595Z,94590.97
2022-11-05T20:38:06.517Z,94596.03
2022-11-05T20:40:33.377Z,94601.56
2022-11-05T20:43:00.173Z,94610.97
2022-11-05T20:45:27.021Z,94610.78
2022-11-05T20:47:53.873Z,94604.91
2022-11-05T20:50:20.732Z,94596.84
2022-11-05T20:52:47.581Z,94593.38
2022-11-05T20:55:15.740Z,94604.19
2022-11-05T20:57:42.687Z,94596.22
2022-11-05T21:00:10.021Z,94604.63
2022-11-05T21:02:38.680Z,94601.25
2022-11-05T21:05:08.109Z,94610.38
2022-11-05T21:07:34.891Z,94616.88
2022-11-05T21:10:02.351Z,94617.97
2022-11-05T21:12:29.256Z,94607.03
2022-11-05T21:14:56.193Z,94611.25
2022-11-05T21:17:23.028Z,94607.94
2022-11-05T21:19:49.979Z,94616.00
2022-11-05T21:22:17.200Z,94617.75
2022-11-05T21:24:44.322Z,94607.38
2022-11-05T21:27:11.282Z,94601.94
2022-11-05T21:29:38.060Z,94616.88
2022-11-05T21:32:04.918Z,94615.78
2022-11-05T21:34:31.895Z,94622.56
2022-11-05T21:36:59.027Z,94616.75
2022-11-05T21:39:26.162Z,94616.13
2022-11-05T21:41:52.961Z,94607.03
2022-11-05T21:44:19.844Z,94595.84
2022-11-05T21:46:46.748Z,94606.84
2022-11-05T21:49:14.693Z,94603.09
2022-11-05T21:52:00.053Z,94606.06
2022-11-05T21:54:45.683Z,94616.13
2022-11-05T21:57:35.916Z,94618.09
2022-11-05T22:00:06.214Z,94621.88
2022-11-05T22:02:33.227Z,94615.06
2022-11-05T22:05:00.384Z,94624.63
2022-11-05T22:07:31.762Z,94619.16
2022-11-05T22:09:59.103Z,94625.03
2022-11-05T22:12:26.567Z,94615.56
2022-11-05T22:14:53.648Z,94602.31
2022-11-05T22:17:21.430Z,94606.81
2022-11-05T22:19:48.253Z,94612.78
2022-11-05T22:22:17.537Z,94627.53
2022-11-05T22:24:44.595Z,94619.75
2022-11-05T22:27:15.277Z,94621.97
2022-11-05T22:29:43.295Z,94613.22
2022-11-05T22:32:11.360Z,94612.25
2022-11-05T22:34:38.243Z,94606.44
2022-11-05T22:37:05.224Z,94610.63
2022-11-05T22:39:32.209Z,94618.88
2022-11-05T22:42:04.220Z,94611.22
2022-11-05T22:44:35.213Z,94621.41
2022-11-05T22:47:05.409Z,94617.19
2022-11-05T22:49:32.970Z,94611.13
2022-11-05T22:52:00.328Z,94604.44
2022-11-05T22:54:27.199Z,94604.59
2022-11-05T22:56:54.017Z,94598.78
2022-11-05T22:59:20.913Z,94611.41
2022-11-05T23:01:47.953Z,94612.91
2022-11-05T23:04:15.696Z,94622.50
2022-11-05T23:07:01.225Z,94619.75
2022-11-05T23:09:52.264Z,94612.56
2022-11-05T23:12:28.508Z,94584.84
2022-11-05T23:14:58.517Z,94612.56
2022-11-05T23:17:44.763Z,94622.50
2022-11-05T23:20:37.058Z,94610.44
2022-11-05T23:23:23.022Z,94626.25
2022-11-05T23:25:49.835Z,94621.91
2022-11-05T23:28:21.331Z,94630.84
2022-11-05T23:31:06.790Z,94624.41
2022-11-05T23:33:34.847Z,94633.94
2022-11-05T23:36:20.461Z,94626.72
2022-11-05T23:38:47.321Z,94637.53
2022-11-05T23:41:32.856Z,94631.34
2022-11-05T23:44:18.523Z,94628.16
2022-11-05T23:47:04.230Z,94621.44
2022-11-05T23:49:31.119Z,94617.84
2022-11-05T23:51:57.992Z,94617.50
2022-11-05T23:54:24.813Z,94613.22
2022-11-05T23:56:52.649Z,94620.13
2022-11-05T23:59:19.490Z,94625.16
